Time;durP1;ratioP1;P1;durP2;ratioP2;P2;SDS_P1;SDS_P2;PMS_P1;PMS_P2;Temp;Humidity;BMP_temperature;BMP_pressure;BME280_temperature;BME280_humidity;BME280_pressure;Samples;Min_cycle;Max_cycle;Signal;HPM_P1;HPM_P2
2022/10/12 00:00:56;;;;;;;2.40;1.00;;;20.10;47.50;;;;;;5133165;28;20055;-11
2022/10/12 00:03:22;;;;;;;2.10;1.30;;;20.10;47.50;;;;;;5133111;28;20455;-11
2022/10/12 00:05:58;;;;;;;2.30;1.13;;;20.10;47.50;;;;;;5132917;28;20051;-11
2022/10/12 00:08:24;;;;;;;2.20;1.23;;;20.10;47.50;;;;;;5132879;28;20440;-11
2022/10/12 00:10:49;;;;;;;2.28;1.10;;;20.10;47.50;;;;;;5132909;28;20043;-11
2022/10/12 00:13:15;;;;;;;1.98;1.30;;;20.00;47.50;;;;;;5132827;28;20107;-11
2022/10/12 00:15:41;;;;;;;1.77;1.20;;;20.10;47.60;;;;;;5132843;28;20051;-11
2022/10/12 00:18:07;;;;;;;1.85;1.13;;;20.00;47.50;;;;;;5132692;28;20406;-11
2022/10/12 00:20:33;;;;;;;1.67;1.17;;;20.10;47.60;;;;;;5132683;28;20520;-11
2022/10/12 00:22:59;;;;;;;2.28;1.52;;;20.10;47.60;;;;;;5132784;28;20062;-11
2022/10/12 00:25:24;;;;;;;2.50;1.40;;;20.00;47.50;;;;;;5132910;28;20406;-11
2022/10/12 00:27:50;;;;;;;1.95;1.10;;;20.00;47.50;;;;;;5133275;28;20121;-11
2022/10/12 00:30:16;;;;;;;0.93;0.93;;;20.00;47.50;;;;;;5133776;27;20467;-11
2022/10/12 00:32:41;;;;;;;1.90;1.45;;;20.00;47.50;;;;;;5136243;28;20062;-11
2022/10/12 00:35:07;;;;;;;1.70;1.15;;;20.00;47.50;;;;;;5136439;28;20376;-11
2022/10/12 00:37:33;;;;;;;0.82;0.70;;;20.00;47.50;;;;;;5136044;28;20138;-11
2022/10/12 00:39:58;;;;;;;1.42;1.23;;;20.00;47.50;;;;;;5136657;28;20057;-11
2022/10/12 00:42:24;;;;;;;1.85;1.40;;;20.00;47.50;;;;;;5135915;28;20047;-11
2022/10/12 00:44:51;;;;;;;2.15;1.20;;;20.00;47.60;;;;;;5136215;28;20071;-11
2022/10/12 00:47:26;;;;;;;1.92;1.00;;;20.00;47.60;;;;;;5135926;28;20556;-11
2022/10/12 00:50:12;;;;;;;2.20;1.45;;;20.00;47.60;;;;;;5135703;28;20063;-11
2022/10/12 00:53:01;;;;;;;1.75;1.30;;;20.00;47.50;;;;;;5135407;28;20058;-11
2022/10/12 00:55:30;;;;;;;2.13;1.13;;;20.00;47.50;;;;;;5135679;28;20502;-11
2022/10/12 00:57:57;;;;;;;2.13;1.40;;;20.00;47.60;;;;;;5135643;28;20160;-12
2022/10/12 01:00:23;;;;;;;1.42;1.20;;;20.00;47.60;;;;;;5135742;28;20051;-11
2022/10/12 01:02:51;;;;;;;3.03;1.10;;;20.00;47.60;;;;;;5135997;28;20135;-11
2022/10/12 01:05:17;;;;;;;1.65;1.27;;;20.00;47.60;;;;;;5136198;28;20052;-11
2022/10/12 01:07:43;;;;;;;2.03;1.27;;;20.00;47.60;;;;;;5135724;28;20047;-12
2022/10/12 01:10:09;;;;;;;1.17;1.00;;;20.00;47.60;;;;;;5135465;28;20487;-11
2022/10/12 01:12:36;;;;;;;2.92;1.30;;;20.00;47.60;;;;;;5135794;28;20055;-11
2022/10/12 01:15:03;;;;;;;1.85;1.40;;;20.00;47.60;;;;;;5135569;28;20514;-11
2022/10/12 01:17:50;;;;;;;1.75;1.45;;;20.00;47.60;;;;;;5135481;28;20075;-11
2022/10/12 01:20:27;;;;;;;1.38;1.20;;;20.00;47.60;;;;;;5131934;28;20058;-11
2022/10/12 01:23:15;;;;;;;1.75;1.15;;;20.00;47.60;;;;;;5135408;28;20478;-11
2022/10/12 01:25:54;;;;;;;2.45;1.42;;;20.00;47.60;;;;;;5096439;28;20055;-11
2022/10/12 01:28:34;;;;;;;1.73;1.20;;;20.00;47.60;;;;;;5135529;28;20047;-11
2022/10/12 01:31:23;;;;;;;1.38;1.20;;;20.00;47.60;;;;;;5135245;28;20051;-11
2022/10/12 01:33:57;;;;;;;1.80;1.40;;;20.00;47.60;;;;;;5135252;28;20108;-11
2022/10/12 01:36:37;;;;;;;1.55;1.20;;;20.00;47.60;;;;;;5135248;28;20055;-11
2022/10/12 01:39:31;;;;;;;1.60;1.00;;;20.00;47.60;;;;;;5135012;28;20058;-11
2022/10/12 01:42:01;;;;;;;2.13;1.20;;;20.00;47.60;;;;;;5134868;27;20192;-11
2022/10/12 01:44:28;;;;;;;1.55;1.20;;;20.00;47.60;;;;;;5134793;28;20095;-11
2022/10/12 01:46:55;;;;;;;2.72;1.50;;;20.00;47.60;;;;;;5134935;28;20051;-11
2022/10/12 01:49:26;;;;;;;2.20;1.30;;;20.00;47.60;;;;;;5134778;28;20053;-11
2022/10/12 01:51:51;;;;;;;1.77;1.38;;;20.00;47.60;;;;;;5134836;28;20247;-11
2022/10/12 01:54:45;;;;;;;2.38;1.30;;;20.00;47.60;;;;;;5134797;28;20525;-11
2022/10/12 01:57:36;;;;;;;2.33;1.10;;;20.00;47.60;;;;;;5135072;28;20192;-12
2022/10/12 02:00:07;;;;;;;1.75;1.30;;;19.90;47.50;;;;;;5132935;28;20162;-11
2022/10/12 02:03:00;;;;;;;2.38;1.33;;;20.00;47.60;;;;;;5135046;28;20044;-11
2022/10/12 02:05:31;;;;;;;1.15;1.05;;;20.00;47.60;;;;;;5134646;28;20133;-11
2022/10/12 02:08:02;;;;;;;;;;;20.00;47.60;;;;;;5134984;28;20046;-11
2022/10/12 02:10:35;;;;;;;2.42;1.45;;;20.00;47.60;;;;;;5134739;28;19915;-11
2022/10/12 02:13:05;;;;;;;2.00;1.20;;;20.00;47.60;;;;;;5134632;28;20047;-11
2022/10/12 02:15:33;;;;;;;1.50;1.20;;;20.00;47.60;;;;;;5134639;28;20043;-11
2022/10/12 02:18:03;;;;;;;1.55;1.10;;;20.00;47.60;;;;;;5134370;28;20047;-11
2022/10/12 02:20:31;;;;;;;1.80;1.10;;;20.00;47.60;;;;;;5134480;28;20051;-11
2022/10/12 02:22:59;;;;;;;2.20;1.40;;;20.00;47.60;;;;;;5134404;28;20068;-11
2022/10/12 02:25:26;;;;;;;1.00;0.98;;;20.00;47.70;;;;;;5134627;28;20039;-11
2022/10/12 02:28:01;;;;;;;1.60;1.20;;;19.90;47.60;;;;;;5134251;28;20108;-11
2022/10/12 02:30:27;;;;;;;1.20;1.10;;;19.90;47.90;;;;;;5134299;28;20062;-11
2022/10/12 02:33:04;;;;;;;2.53;1.42;;;19.90;47.60;;;;;;5134247;28;20055;-11
2022/10/12 02:35:33;;;;;;;1.75;1.30;;;19.90;47.60;;;;;;5134624;28;20386;-11
2022/10/12 02:38:19;;;;;;;1.55;1.20;;;20.00;47.60;;;;;;5133729;28;20058;-11
2022/10/12 02:40:51;;;;;;;2.15;1.13;;;20.00;47.60;;;;;;5134375;28;20057;-11
2022/10/12 02:43:24;;;;;;;2.55;1.33;;;20.00;47.60;;;;;;5134106;28;20391;-11
2022/10/12 02:45:50;;;;;;;2.03;1.30;;;19.90;47.60;;;;;;5134026;28;20047;-11
2022/10/12 02:48:22;;;;;;;1.60;1.40;;;19.90;47.60;;;;;;5133719;28;20089;-12
2022/10/12 02:50:52;;;;;;;1.25;1.10;;;19.90;47.60;;;;;;5134062;28;20045;-11
2022/10/12 02:53:18;;;;;;;2.50;1.30;;;19.90;47.60;;;;;;5133023;27;20058;-11
2022/10/12 02:55:59;;;;;;;2.30;1.30;;;20.00;47.60;;;;;;5133901;28;20137;-11
2022/10/12 02:58:24;;;;;;;1.20;1.10;;;20.00;47.50;;;;;;5133608;28;20057;-12
2022/10/12 03:00:50;;;;;;;2.22;1.40;;;20.10;47.50;;;;;;5134464;28;20047;-11
2022/10/12 03:03:16;;;;;;;1.92;1.30;;;20.10;47.30;;;;;;5133826;28;20047;-11
2022/10/12 03:05:42;;;;;;;1.75;1.20;;;20.10;47.20;;;;;;5133744;28;20099;-11
2022/10/12 03:08:08;;;;;;;1.27;1.13;;;20.20;47.30;;;;;;5134093;28;20047;-11
2022/10/12 03:10:33;;;;;;;2.20;1.08;;;20.10;47.10;;;;;;5133544;28;20054;-11
2022/10/12 03:12:59;;;;;;;1.75;1.20;;;20.20;47.10;;;;;;5133705;28;20062;-11
2022/10/12 03:15:25;;;;;;;1.75;1.42;;;20.20;47.10;;;;;;5134231;28;20126;-11
2022/10/12 03:17:50;;;;;;;2.00;1.25;;;20.20;47.00;;;;;;5133668;28;20078;-11
2022/10/12 03:20:16;;;;;;;3.42;1.48;;;20.30;47.00;;;;;;5133495;28;20039;-11
2022/10/12 03:22:42;;;;;;;1.80;1.20;;;20.30;46.90;;;;;;5133465;28;20398;-11
2022/10/12 03:25:07;;;;;;;1.20;1.02;;;20.30;46.80;;;;;;5133720;28;20051;-11
2022/10/12 03:27:33;;;;;;;1.73;1.48;;;20.40;46.80;;;;;;5133449;28;20563;-11
2022/10/12 03:29:58;;;;;;;1.63;1.13;;;20.40;46.80;;;;;;5133454;28;20044;-11
2022/10/12 03:32:24;;;;;;;1.40;1.23;;;20.40;46.70;;;;;;5133533;28;20070;-12
2022/10/12 03:34:50;;;;;;;1.67;1.20;;;20.40;46.70;;;;;;5133632;28;20056;-11
2022/10/12 03:37:15;;;;;;;1.13;0.95;;;20.40;46.60;;;;;;5133335;28;20047;-11
2022/10/12 03:39:43;;;;;;;1.10;1.00;;;20.40;46.50;;;;;;5133878;28;20060;-11
2022/10/12 03:42:09;;;;;;;2.03;1.42;;;20.50;46.50;;;;;;5133382;28;20063;-11
2022/10/12 03:44:36;;;;;;;2.22;1.27;;;20.50;46.50;;;;;;5133724;28;20096;-11
2022/10/12 03:47:02;;;;;;;1.58;1.05;;;20.50;46.50;;;;;;5133416;28;20043;-11
2022/10/12 03:49:28;;;;;;;2.38;1.20;;;20.50;46.40;;;;;;5132863;28;20062;-11
2022/10/12 03:51:53;;;;;;;1.45;1.33;;;20.60;46.40;;;;;;5132847;28;20133;-11
2022/10/12 03:54:19;;;;;;;1.65;1.40;;;20.50;46.30;;;;;;5133123;28;20115;-11
2022/10/12 03:56:44;;;;;;;2.20;1.27;;;20.60;46.40;;;;;;5133422;28;20451;-11
2022/10/12 03:59:10;;;;;;;1.50;1.40;;;20.60;46.40;;;;;;5132729;28;20407;-11
2022/10/12 04:01:35;;;;;;;1.95;1.30;;;20.60;46.40;;;;;;5133070;28;20078;-11
2022/10/12 04:04:01;;;;;;;1.58;1.23;;;20.60;46.40;;;;;;5133550;27;20047;-11
2022/10/12 04:06:26;;;;;;;1.95;1.42;;;20.60;46.40;;;;;;5136588;28;20051;-11
2022/10/12 04:08:52;;;;;;;1.75;1.40;;;20.60;46.30;;;;;;5136360;28;20186;-11
2022/10/12 04:11:19;;;;;;;2.22;1.50;;;20.60;46.30;;;;;;5136453;28;20047;-11
2022/10/12 04:13:44;;;;;;;1.88;0.90;;;20.60;46.40;;;;;;5136463;28;20133;-11
2022/10/12 04:16:10;;;;;;;1.52;1.13;;;20.60;46.30;;;;;;5136637;28;20078;-11
2022/10/12 04:18:36;;;;;;;1.30;1.15;;;20.60;46.30;;;;;;5136397;28;20050;-11
2022/10/12 04:21:07;;;;;;;2.85;1.75;;;20.60;46.30;;;;;;5136843;28;20099;-11
2022/10/12 04:23:33;;;;;;;1.85;1.30;;;20.60;46.30;;;;;;5136291;28;21306;-11
2022/10/12 04:25:58;;;;;;;1.38;1.27;;;20.60;46.20;;;;;;5136306;28;20092;-12
2022/10/12 04:28:24;;;;;;;1.58;1.30;;;20.60;46.30;;;;;;5136646;28;20058;-11
2022/10/12 04:30:50;;;;;;;1.40;1.30;;;20.60;46.20;;;;;;5136155;28;20100;-11
2022/10/12 04:33:15;;;;;;;1.80;1.20;;;20.60;46.20;;;;;;5136188;28;20047;-11
2022/10/12 04:35:41;;;;;;;1.23;1.13;;;20.60;46.20;;;;;;5136760;28;20126;-11
2022/10/12 04:38:06;;;;;;;1.83;1.33;;;20.60;46.20;;;;;;5136104;28;20099;-11
2022/10/12 04:40:32;;;;;;;3.38;1.83;;;20.60;46.30;;;;;;5136253;28;20047;-11
2022/10/12 04:42:57;;;;;;;1.80;1.25;;;20.60;46.30;;;;;;5136112;28;20134;-11
2022/10/12 04:45:23;;;;;;;1.70;1.10;;;20.60;46.30;;;;;;5135933;28;20058;-11
2022/10/12 04:47:48;;;;;;;1.98;1.30;;;20.60;46.40;;;;;;5135948;28;20051;-11
2022/10/12 04:50:14;;;;;;;2.05;1.30;;;20.60;46.40;;;;;;5135841;28;20055;-11
2022/10/12 04:52:40;;;;;;;3.38;1.65;;;20.60;46.40;;;;;;5135866;28;20384;-11
2022/10/12 04:55:06;;;;;;;1.25;1.17;;;20.60;46.40;;;;;;5136070;28;20053;-11
2022/10/12 04:57:32;;;;;;;1.33;1.20;;;20.60;46.40;;;;;;5135729;28;20043;-12
2022/10/12 04:59:57;;;;;;;2.03;1.27;;;20.50;46.40;;;;;;5135848;28;20142;-11
2022/10/12 05:02:23;;;;;;;1.42;1.10;;;20.50;46.40;;;;;;5135937;28;20124;-11
2022/10/12 05:04:48;;;;;;;1.23;1.13;;;20.50;46.40;;;;;;5135650;28;20490;-11
2022/10/12 05:07:15;;;;;;;1.35;1.10;;;20.50;46.40;;;;;;5135633;28;20055;-11
2022/10/12 05:09:42;;;;;;;2.47;1.63;;;20.50;46.40;;;;;;5136135;28;20072;-11
2022/10/12 05:12:09;;;;;;;1.90;1.20;;;20.50;46.40;;;;;;5135786;28;20078;-11
2022/10/12 05:14:37;;;;;;;1.05;0.95;;;20.50;46.40;;;;;;5135869;28;20054;-11
2022/10/12 05:17:03;;;;;;;1.30;1.10;;;20.50;46.50;;;;;;5135270;27;20054;-11
2022/10/12 05:19:28;;;;;;;1.83;1.30;;;20.50;46.50;;;;;;5134966;28;20050;-11
2022/10/12 05:21:54;;;;;;;1.60;1.23;;;20.50;46.40;;;;;;5135133;28;20058;-11
2022/10/12 05:24:20;;;;;;;3.58;1.20;;;20.50;46.40;;;;;;5134950;28;20051;-11
2022/10/12 05:26:45;;;;;;;1.40;1.30;;;20.50;46.40;;;;;;5134888;28;20055;-11
2022/10/12 05:29:11;;;;;;;2.00;1.42;;;20.50;46.40;;;;;;5135301;28;20059;-11
2022/10/12 05:31:36;;;;;;;1.33;1.20;;;20.50;46.40;;;;;;5135204;28;20051;-11
2022/10/12 05:34:02;;;;;;;1.75;1.27;;;20.50;46.40;;;;;;5135798;28;20046;-11
2022/10/12 05:36:28;;;;;;;1.70;1.20;;;20.50;46.40;;;;;;5116780;28;20465;-11
2022/10/12 05:38:53;;;;;;;1.45;1.30;;;20.50;46.50;;;;;;5134925;28;20055;-11
2022/10/12 05:41:19;;;;;;;1.55;1.30;;;20.50;46.40;;;;;;5134960;28;20100;-11
2022/10/12 05:43:44;;;;;;;2.08;1.27;;;20.50;46.40;;;;;;5135106;28;20491;-11
2022/10/12 05:46:10;;;;;;;1.45;1.35;;;20.50;46.40;;;;;;5135234;28;20415;-11
2022/10/12 05:48:35;;;;;;;1.65;1.20;;;20.50;46.50;;;;;;5134936;28;20075;-11
2022/10/12 05:51:01;;;;;;;1.50;1.25;;;20.50;46.50;;;;;;5134948;28;20051;-11
2022/10/12 05:53:27;;;;;;;1.65;1.17;;;20.50;46.50;;;;;;5135189;28;20471;-11
2022/10/12 05:55:53;;;;;;;1.63;1.20;;;20.50;46.50;;;;;;5134804;28;20130;-11
2022/10/12 05:58:19;;;;;;;1.40;1.27;;;20.50;46.50;;;;;;5135055;28;20055;-11
2022/10/12 06:00:45;;;;;;;1.45;1.20;;;20.50;46.50;;;;;;5134852;28;20100;-11
2022/10/12 06:03:10;;;;;;;2.03;1.27;;;20.50;46.50;;;;;;5134593;28;20483;-11
2022/10/12 06:05:36;;;;;;;1.70;1.30;;;20.50;46.50;;;;;;5134128;28;20109;-11
2022/10/12 06:08:02;;;;;;;1.65;1.42;;;20.50;46.50;;;;;;5134731;28;20181;-11
2022/10/12 06:10:27;;;;;;;1.42;1.13;;;20.60;46.50;;;;;;5134550;28;20136;-11
2022/10/12 06:12:53;;;;;;;2.80;1.35;;;20.60;46.40;;;;;;5134533;28;20395;-11
2022/10/12 06:15:18;;;;;;;1.80;1.30;;;20.60;46.20;;;;;;5134156;28;20398;-11
2022/10/12 06:17:44;;;;;;;1.02;1.00;;;20.70;46.20;;;;;;5134239;28;20051;-11
2022/10/12 06:20:10;;;;;;;3.35;1.42;;;20.70;46.00;;;;;;5134061;28;20050;-12
2022/10/12 06:22:36;;;;;;;2.45;1.27;;;20.80;45.90;;;;;;5134428;28;20073;-12
2022/10/12 06:25:01;;;;;;;1.42;1.25;;;20.90;45.80;;;;;;5134140;28;20403;-12
2022/10/12 06:27:27;;;;;;;1.65;1.30;;;20.90;45.70;;;;;;5133383;27;20081;-12
2022/10/12 06:29:53;;;;;;;2.05;1.40;;;21.00;45.60;;;;;;5133361;28;20108;-12
2022/10/12 06:32:18;;;;;;;1.05;0.98;;;21.00;45.40;;;;;;5134636;28;20058;-12
2022/10/12 06:34:44;;;;;;;1.50;1.38;;;21.10;45.30;;;;;;5134028;28;20498;-12
2022/10/12 06:37:10;;;;;;;2.22;1.70;;;21.10;45.20;;;;;;5134140;28;20047;-11
2022/10/12 06:39:36;;;;;;;2.60;1.38;;;21.20;45.20;;;;;;5133712;28;20500;-12
2022/10/12 06:42:02;;;;;;;1.75;1.40;;;21.20;45.00;;;;;;5134080;28;20051;-12
2022/10/12 06:44:28;;;;;;;1.67;1.25;;;21.20;44.90;;;;;;5114483;28;20416;-11
2022/10/12 06:46:54;;;;;;;1.58;1.20;;;21.30;44.90;;;;;;5133561;28;20050;-12
2022/10/12 06:49:19;;;;;;;1.67;1.30;;;21.40;44.80;;;;;;5133358;28;20467;-12
2022/10/12 06:51:45;;;;;;;1.77;1.50;;;21.40;44.70;;;;;;5133406;28;20051;-11
2022/10/12 06:54:10;;;;;;;1.60;1.20;;;21.40;44.60;;;;;;5133649;28;20054;-11
2022/10/12 06:56:38;;;;;;;1.70;1.40;;;21.50;44.60;;;;;;5133673;28;20088;-11
2022/10/12 06:59:04;;;;;;;1.42;1.20;;;21.50;44.50;;;;;;5133319;28;20051;-11
2022/10/12 07:01:29;;;;;;;2.42;1.55;;;21.50;44.40;;;;;;5133619;28;20123;-11
2022/10/12 07:03:55;;;;;;;2.65;1.30;;;21.60;44.40;;;;;;5133664;28;20096;-11
2022/10/12 07:06:21;;;;;;;1.77;1.48;;;21.60;44.30;;;;;;5133645;28;20058;-11
2022/10/12 07:08:47;;;;;;;2.20;1.50;;;21.60;44.20;;;;;;5133510;28;20054;-11
2022/10/12 07:11:13;;;;;;;2.53;1.73;;;21.70;44.10;;;;;;5133493;28;20421;-11
2022/10/12 07:13:40;;;;;;;1.42;1.25;;;21.80;43.90;;;;;;5133477;28;20134;-11
2022/10/12 07:16:06;;;;;;;2.03;1.45;;;22.00;43.60;;;;;;5133163;28;20100;-11
2022/10/12 07:18:32;;;;;;;1.58;1.35;;;22.00;43.60;;;;;;5132957;28;20425;-11
2022/10/12 07:20:58;;;;;;;1.52;1.30;;;21.90;43.70;;;;;;5132871;28;20047;-11
2022/10/12 07:23:25;;;;;;;1.55;1.20;;;21.90;43.70;;;;;;5133054;28;20050;-11
2022/10/12 07:25:52;;;;;;;1.73;1.40;;;21.80;43.80;;;;;;5132722;28;20043;-11
2022/10/12 07:28:19;;;;;;;1.50;1.40;;;21.90;43.80;;;;;;5133195;28;20058;-11
2022/10/12 07:30:45;;;;;;;1.40;1.15;;;21.80;43.80;;;;;;5133095;28;20137;-11
2022/10/12 07:33:11;;;;;;;2.45;1.70;;;21.90;43.90;;;;;;5132852;28;20051;-11
2022/10/12 07:35:37;;;;;;;1.67;1.38;;;21.80;44.40;;;;;;5132907;28;20047;-11
2022/10/12 07:38:03;;;;;;;1.85;1.55;;;21.80;43.90;;;;;;5132891;28;20134;-11
2022/10/12 07:40:30;;;;;;;1.80;1.30;;;21.80;43.90;;;;;;5116413;28;20047;-12
2022/10/12 07:42:56;;;;;;;1.85;1.38;;;21.80;44.00;;;;;;5134374;28;20047;-12
2022/10/12 07:45:21;;;;;;;1.88;1.38;;;21.80;44.10;;;;;;5135042;28;20068;-12
2022/10/12 07:47:47;;;;;;;2.78;1.85;;;21.80;44.10;;;;;;5135811;28;20116;-11
2022/10/12 07:50:13;;;;;;;1.42;1.30;;;21.80;44.60;;;;;;5135923;28;20949;-17
2022/10/12 07:52:39;;;;;;;2.97;1.05;;;21.70;44.00;;;;;;5135934;28;20120;-12
2022/10/12 07:55:06;;;;;;;1.23;1.13;;;21.70;44.00;;;;;;5135897;28;20050;-11
2022/10/12 07:57:33;;;;;;;1.77;1.55;;;21.70;44.10;;;;;;5136197;28;20130;-13
2022/10/12 07:59:58;;;;;;;1.48;1.33;;;21.70;44.10;;;;;;5133502;28;20051;-12
2022/10/12 08:02:24;;;;;;;1.52;1.42;;;21.70;44.20;;;;;;5133610;28;20050;-12
2022/10/12 08:04:51;;;;;;;1.38;1.27;;;21.60;44.30;;;;;;5134542;28;20058;-12
2022/10/12 08:07:17;;;;;;;1.38;1.20;;;21.60;44.30;;;;;;5134473;28;20051;-14
2022/10/12 08:09:42;;;;;;;2.13;1.50;;;21.60;44.30;;;;;;5135186;28;20051;-12
2022/10/12 08:12:10;;;;;;;1.73;1.38;;;21.60;44.40;;;;;;5135596;28;20515;-11
2022/10/12 08:14:37;;;;;;;1.98;1.70;;;21.50;44.50;;;;;;5135920;28;20047;-11
2022/10/12 08:17:04;;;;;;;2.08;1.23;;;21.50;44.60;;;;;;5136288;28;20055;-11
2022/10/12 08:19:30;;;;;;;1.45;1.20;;;21.50;44.60;;;;;;5135579;28;20133;-11
2022/10/12 08:21:56;;;;;;;1.80;1.40;;;21.40;44.60;;;;;;5135825;28;20621;-11
2022/10/12 08:24:22;;;;;;;1.58;1.30;;;21.40;44.70;;;;;;5136300;28;20103;-11
2022/10/12 08:26:48;;;;;;;1.50;1.20;;;21.40;44.70;;;;;;5135501;28;20411;-11
2022/10/12 08:29:14;;;;;;;2.25;1.52;;;21.40;44.80;;;;;;5135287;28;20055;-11
2022/10/12 08:31:40;;;;;;;1.55;1.23;;;21.30;44.80;;;;;;5135789;28;20043;-11
2022/10/12 08:34:06;;;;;;;2.15;1.52;;;21.30;44.90;;;;;;5135710;28;20133;-11
2022/10/12 08:36:32;;;;;;;2.35;1.25;;;21.30;44.90;;;;;;5135535;28;20231;-11
2022/10/12 08:38:58;;;;;;;3.05;1.50;;;21.30;45.00;;;;;;5135724;28;20055;-11
2022/10/12 08:41:39;;;;;;;2.20;1.58;;;21.30;45.00;;;;;;5135548;28;20058;-11
2022/10/12 08:44:28;;;;;;;1.50;1.40;;;21.30;45.10;;;;;;5135632;28;20461;-11
2022/10/12 08:46:59;;;;;;;1.63;1.30;;;21.20;45.10;;;;;;5123443;28;20043;-11
2022/10/12 08:49:28;;;;;;;3.22;1.45;;;21.20;45.20;;;;;;5135691;28;20054;-11
2022/10/12 08:51:56;;;;;;;1.92;1.20;;;21.20;45.30;;;;;;5133798;27;20058;-11
2022/10/12 08:54:24;;;;;;;1.92;1.40;;;21.10;45.40;;;;;;5134933;28;20051;-11
2022/10/12 08:56:53;;;;;;;1.77;1.33;;;21.20;45.40;;;;;;5135143;28;20050;-11
2022/10/12 08:59:19;;;;;;;1.30;1.15;;;21.20;45.30;;;;;;5134946;28;20075;-11
2022/10/12 09:02:12;;;;;;;1.40;1.30;;;21.20;45.40;;;;;;5134963;28;20051;-11
2022/10/12 09:04:58;;;;;;;1.80;1.40;;;21.10;45.50;;;;;;5135450;28;20047;-11
2022/10/12 09:07:38;;;;;;;2.60;1.92;;;21.10;45.50;;;;;;5135011;28;20129;-11
2022/10/12 09:10:32;;;;;;;1.55;1.27;;;21.10;45.50;;;;;;5135074;28;20108;-11
2022/10/12 09:13:16;;;;;;;1.80;1.33;;;21.10;45.40;;;;;;5134292;28;20487;-13
2022/10/12 09:16:02;;;;;;;2.63;1.70;;;21.10;45.40;;;;;;5133215;28;20134;-13
2022/10/12 09:18:39;;;;;;;2.40;1.63;;;21.10;45.50;;;;;;5132889;28;20141;-12
2022/10/12 09:21:07;;;;;;;1.95;1.13;;;21.10;45.40;;;;;;5134127;28;20157;-11
2022/10/12 09:23:41;;;;;;;2.15;1.65;;;21.10;45.50;;;;;;5135236;28;20512;-12
2022/10/12 09:26:38;;;;;;;1.63;1.45;;;21.10;45.50;;;;;;5134908;28;20046;-12
2022/10/12 09:29:24;;;;;;;1.52;1.33;;;21.10;45.50;;;;;;5135098;28;20130;-12
2022/10/12 09:32:05;;;;;;;1.95;1.40;;;21.10;45.50;;;;;;5134663;28;20103;-12
2022/10/12 09:34:34;;;;;;;1.33;1.20;;;21.10;45.60;;;;;;5133771;28;20123;-12
2022/10/12 09:37:03;;;;;;;2.38;1.13;;;21.00;45.50;;;;;;5132079;28;20550;-13
2022/10/12 09:39:36;;;;;;;3.83;1.52;;;21.10;45.60;;;;;;5132286;28;20065;-14
2022/10/12 09:42:02;;;;;;;1.60;1.30;;;21.00;45.50;;;;;;5132547;28;20051;-15
2022/10/12 09:44:31;;;;;;;1.40;1.30;;;21.00;45.60;;;;;;5132864;28;20494;-14
2022/10/12 09:47:02;;;;;;;2.15;1.55;;;21.00;45.60;;;;;;5133639;27;20083;-12
2022/10/12 09:49:42;;;;;;;;;;;21.00;45.60;;;;;;5134129;28;20066;-12
2022/10/12 09:52:11;;;;;;;2.97;1.65;;;21.00;45.70;;;;;;5135134;28;20369;-12
2022/10/12 09:54:44;;;;;;;2.40;1.33;;;21.00;45.60;;;;;;5134601;28;20085;-12
2022/10/12 09:57:19;;;;;;;1.38;1.20;;;21.00;45.60;;;;;;5134959;28;20070;-12
2022/10/12 09:59:46;;;;;;;2.78;1.50;;;21.00;45.70;;;;;;5134881;28;20394;-11
2022/10/12 10:02:19;;;;;;;1.65;1.50;;;21.00;45.60;;;;;;5133958;27;20099;-11
2022/10/12 10:04:47;;;;;;;1.88;1.52;;;21.00;45.70;;;;;;5133873;28;20051;-12
2022/10/12 10:07:30;;;;;;;1.65;1.30;;;21.00;45.80;;;;;;5132933;28;20125;-11
2022/10/12 10:10:16;;;;;;;3.63;1.60;;;21.00;45.70;;;;;;5134805;28;20047;-11
2022/10/12 10:12:53;;;;;;;2.42;1.48;;;21.00;45.70;;;;;;5133990;28;20061;-11
2022/10/12 10:15:19;;;;;;;1.70;1.35;;;21.00;45.70;;;;;;5134113;28;20150;-11
2022/10/12 10:17:52;;;;;;;2.33;1.30;;;21.00;45.70;;;;;;5133687;28;20108;-11
2022/10/12 10:20:58;;;;;;;3.22;1.60;;;21.00;45.60;;;;;;5133917;28;20047;-11
2022/10/12 10:23:35;;;;;;;1.67;1.25;;;21.00;45.60;;;;;;5132291;28;20449;-12
2022/10/12 10:26:05;;;;;;;3.05;1.38;;;21.00;45.60;;;;;;5133399;28;20235;-11
2022/10/12 10:28:33;;;;;;;2.28;1.38;;;21.10;45.70;;;;;;5134010;28;20123;-12
2022/10/12 10:31:02;;;;;;;2.53;1.73;;;21.10;45.60;;;;;;5133868;28;20100;-12
2022/10/12 10:33:34;;;;;;;3.90;1.35;;;21.10;45.60;;;;;;5133885;28;20451;-12
2022/10/12 10:36:18;;;;;;;1.85;1.45;;;21.10;45.60;;;;;;5133694;28;20051;-12
2022/10/12 10:39:01;;;;;;;1.70;1.40;;;21.10;45.70;;;;;;5133803;28;20091;-12
2022/10/12 10:41:34;;;;;;;2.60;1.60;;;21.00;45.60;;;;;;5134118;28;20047;-11
2022/10/12 10:44:03;;;;;;;1.35;1.25;;;21.10;45.60;;;;;;5115379;28;20061;-10
2022/10/12 10:46:33;;;;;;;1.50;1.33;;;21.10;45.60;;;;;;5133441;28;20051;-12
2022/10/12 10:49:20;;;;;;;1.70;1.30;;;21.10;45.60;;;;;;5133902;28;20054;-12
2022/10/12 10:51:49;;;;;;;2.88;1.58;;;21.10;45.60;;;;;;5133705;28;20051;-10
2022/10/12 10:54:23;;;;;;;2.13;1.40;;;21.10;45.60;;;;;;5133535;28;20469;-12
2022/10/12 10:57:03;;;;;;;1.67;1.25;;;21.10;45.60;;;;;;5133677;28;20131;-10
2022/10/12 10:59:59;;;;;;;1.70;1.58;;;21.10;45.60;;;;;;5133422;28;20047;-10
2022/10/12 11:02:33;;;;;;;1.95;1.73;;;21.10;45.60;;;;;;5132965;28;20057;-10
2022/10/12 11:05:22;;;;;;;2.50;1.63;;;21.10;45.60;;;;;;5133374;28;20058;-10
2022/10/12 11:08:01;;;;;;;2.97;1.52;;;21.10;45.70;;;;;;5133793;28;20391;-10
2022/10/12 11:10:46;;;;;;;1.30;1.20;;;21.10;45.70;;;;;;5133440;28;20142;-10
2022/10/12 11:13:15;;;;;;;2.65;1.50;;;21.10;45.60;;;;;;5133094;28;20146;-10
2022/10/12 11:15:46;;;;;;;1.98;1.70;;;21.10;45.60;;;;;;5132641;27;20047;-10
2022/10/12 11:18:40;;;;;;;2.78;1.70;;;21.10;45.60;;;;;;5133395;28;20051;-10
2022/10/12 11:21:17;;;;;;;2.60;1.58;;;21.10;45.60;;;;;;5133340;28;20407;-11
2022/10/12 11:23:50;;;;;;;3.78;1.58;;;21.10;45.50;;;;;;5133595;28;20141;-11
2022/10/12 11:26:39;;;;;;;3.25;1.75;;;21.10;45.60;;;;;;5133031;28;20514;-11
2022/10/12 11:29:07;;;;;;;2.60;1.67;;;21.10;45.50;;;;;;5133182;28;20054;-11
2022/10/12 11:31:41;;;;;;;2.10;1.70;;;21.10;45.50;;;;;;5133047;28;20078;-11
2022/10/12 11:34:15;;;;;;;2.95;1.30;;;21.10;46.00;;;;;;5133639;28;20062;-11
2022/10/12 11:36:44;;;;;;;1.75;1.33;;;21.10;45.50;;;;;;5133462;28;20479;-11
2022/10/12 11:39:27;;;;;;;4.15;1.40;;;21.10;45.50;;;;;;5112847;28;20056;-11
2022/10/12 11:41:56;;;;;;;1.92;1.45;;;21.10;45.60;;;;;;5132991;28;20071;-11
2022/10/12 11:44:42;;;;;;;3.95;1.55;;;21.10;45.60;;;;;;5132583;28;20063;-11
2022/10/12 11:47:19;;;;;;;2.80;1.58;;;21.10;45.50;;;;;;5133041;28;20046;-11
2022/10/12 11:49:58;;;;;;;2.22;1.63;;;21.10;45.60;;;;;;5133177;28;20050;-11
2022/10/12 11:52:27;;;;;;;3.65;1.60;;;21.10;45.50;;;;;;5133206;28;20490;-11
2022/10/12 11:55:34;;;;;;;2.38;1.58;;;21.10;45.50;;;;;;5132763;28;20054;-11
2022/10/12 11:58:15;;;;;;;1.92;1.30;;;21.10;45.50;;;;;;5132822;28;20452;-11
2022/10/12 12:00:50;;;;;;;1.88;1.58;;;21.10;45.50;;;;;;5132532;28;20479;-11
2022/10/12 12:03:29;;;;;;;1.90;1.50;;;21.10;45.60;;;;;;5132306;28;20477;-11
2022/10/12 12:05:55;;;;;;;2.10;1.42;;;21.10;45.50;;;;;;5132756;28;20099;-11
2022/10/12 12:08:30;;;;;;;2.65;1.70;;;21.10;45.50;;;;;;5132664;28;20138;-10
2022/10/12 12:11:05;;;;;;;2.05;1.55;;;21.10;45.50;;;;;;5132576;28;20058;-11
2022/10/12 12:13:32;;;;;;;2.75;1.73;;;21.10;45.50;;;;;;5132626;28;20426;-10
2022/10/12 12:15:57;;;;;;;2.00;1.60;;;21.10;45.50;;;;;;5132126;28;20122;-11
2022/10/12 12:18:48;;;;;;;1.55;1.30;;;21.10;45.60;;;;;;5132404;28;20082;-11
2022/10/12 12:21:14;;;;;;;2.13;1.33;;;21.10;45.60;;;;;;5132394;28;20128;-10
2022/10/12 12:23:52;;;;;;;2.97;1.50;;;21.10;45.50;;;;;;5132201;28;20174;-11
2022/10/12 12:26:20;;;;;;;2.33;1.77;;;21.10;45.50;;;;;;5134837;27;20039;-11
2022/10/12 12:29:11;;;;;;;2.30;1.45;;;21.10;46.00;;;;;;5136001;28;20043;-11
2022/10/12 12:31:37;;;;;;;2.65;1.58;;;21.10;45.50;;;;;;5125973;28;20047;-11
2022/10/12 12:34:12;;;;;;;1.95;1.52;;;21.10;45.50;;;;;;5135611;28;20055;-11
2022/10/12 12:36:43;;;;;;;1.50;1.40;;;21.10;45.50;;;;;;5135756;28;20062;-11
2022/10/12 12:39:32;;;;;;;1.98;1.65;;;21.10;45.50;;;;;;5135585;28;20058;-11
2022/10/12 12:42:03;;;;;;;1.55;1.45;;;21.10;45.60;;;;;;5135029;28;20375;-11
2022/10/12 12:44:32;;;;;;;;;;;21.10;45.60;;;;;;5136421;28;20055;-11
2022/10/12 12:47:01;;;;;;;3.35;1.58;;;21.10;45.60;;;;;;5135601;28;19915;-11
2022/10/12 12:49:39;;;;;;;2.03;1.50;;;21.10;45.60;;;;;;5135516;28;20134;-11
2022/10/12 12:52:19;;;;;;;2.95;1.30;;;21.10;45.60;;;;;;5136086;28;20416;-11
2022/10/12 12:55:02;;;;;;;2.05;1.55;;;21.10;45.60;;;;;;5135169;28;20053;-14
2022/10/12 12:57:50;;;;;;;3.40;1.70;;;21.10;45.60;;;;;;5134703;28;20487;-11
2022/10/12 13:00:25;;;;;;;2.35;1.90;;;21.10;45.70;;;;;;5134496;28;20051;-12
2022/10/12 13:03:22;;;;;;;2.97;1.65;;;21.10;45.70;;;;;;5134947;28;20051;-11
2022/10/12 13:06:03;;;;;;;3.75;1.30;;;21.10;45.70;;;;;;5135003;28;20159;-11